Time;durP1;ratioP1;P1;durP2;ratioP2;P2;SDS_P1;SDS_P2;PMS_P1;PMS_P2;Temp;Humidity;BMP_temperature;BMP_pressure;BME280_temperature;BME280_humidity;BME280_pressure;Samples;Min_cycle;Max_cycle;Signal;HPM_P1;HPM_P2
2021/09/24 00:01:54;;;;;;;5.75;2.90;;;15.50;93.20;;;;;;5072020;28;20029;-76
2021/09/24 00:04:19;;;;;;;3.63;2.70;;;15.50;93.50;;;;;;5072265;28;20063;-76
2021/09/24 00:06:45;;;;;;;4.60;2.85;;;15.40;93.60;;;;;;5071677;28;20052;-76
2021/09/24 00:09:11;;;;;;;6.30;2.95;;;15.40;93.70;;;;;;5072063;28;20078;-76
2021/09/24 00:11:39;;;;;;;3.58;2.55;;;15.30;93.80;;;;;;5072507;28;20075;-76
2021/09/24 00:14:05;;;;;;;4.22;2.78;;;15.30;94.00;;;;;;5071809;28;20020;-76
2021/09/24 00:16:32;;;;;;;4.68;2.83;;;15.10;94.20;;;;;;5071277;28;20028;-76
2021/09/24 00:18:57;;;;;;;4.47;3.13;;;15.00;94.40;;;;;;5073301;28;20040;-76
2021/09/24 00:21:23;;;;;;;3.55;2.75;;;15.00;94.60;;;;;;5071823;28;20029;-76
2021/09/24 00:23:49;;;;;;;3.20;2.40;;;15.00;94.50;;;;;;5072535;28;20054;-76
2021/09/24 00:26:15;;;;;;;6.07;3.00;;;15.10;94.30;;;;;;5071720;28;20362;-77
2021/09/24 00:28:41;;;;;;;5.05;2.88;;;15.20;94.30;;;;;;5072452;28;20040;-76
2021/09/24 00:31:06;;;;;;;5.88;2.78;;;15.30;94.00;;;;;;5073079;28;20025;-76
2021/09/24 00:33:32;;;;;;;4.20;2.55;;;15.40;93.80;;;;;;5070971;28;20051;-77
2021/09/24 00:35:58;;;;;;;5.13;3.03;;;15.40;93.70;;;;;;5071706;28;20024;-76
2021/09/24 00:38:24;;;;;;;5.45;3.30;;;15.50;93.60;;;;;;5072225;28;20385;-76
2021/09/24 00:40:50;;;;;;;2.80;2.38;;;15.50;93.50;;;;;;5071182;28;20033;-76
2021/09/24 00:43:17;;;;;;;4.55;3.03;;;15.50;93.50;;;;;;5072747;28;20028;-76
2021/09/24 00:45:42;;;;;;;6.78;3.05;;;15.40;93.50;;;;;;5072424;28;20074;-76
2021/09/24 00:48:08;;;;;;;6.55;2.80;;;15.40;93.60;;;;;;5073170;28;20025;-76
2021/09/24 00:50:34;;;;;;;7.03;3.00;;;15.40;93.60;;;;;;5074418;28;20540;-76
2021/09/24 00:53:00;;;;;;;4.45;2.67;;;15.40;93.60;;;;;;5075428;28;20115;-76
2021/09/24 00:55:26;;;;;;;6.57;2.90;;;15.40;93.60;;;;;;5076331;28;20127;-76
2021/09/24 00:57:52;;;;;;;6.07;3.00;;;15.40;93.60;;;;;;5074744;28;20090;-76
2021/09/24 01:00:18;;;;;;;5.65;3.00;;;15.40;93.60;;;;;;5076431;28;20025;-76
2021/09/24 01:02:45;;;;;;;3.70;2.70;;;15.40;93.60;;;;;;5075986;28;20032;-76
2021/09/24 01:05:12;;;;;;;5.85;3.35;;;15.40;93.60;;;;;;5075095;28;20063;-76
2021/09/24 01:07:41;;;;;;;4.50;2.80;;;15.30;93.60;;;;;;5074612;28;20020;-76
2021/09/24 01:10:08;;;;;;;7.30;2.67;;;15.40;93.50;;;;;;5075341;28;20033;-76
2021/09/24 01:12:35;;;;;;;5.90;2.80;;;15.40;93.50;;;;;;5074241;28;20043;-77
2021/09/24 01:15:04;;;;;;;3.92;2.95;;;15.40;93.40;;;;;;5075085;28;20051;-76
2021/09/24 01:17:31;;;;;;;5.07;2.92;;;15.40;93.40;;;;;;5074805;28;20028;-78
2021/09/24 01:19:56;;;;;;;4.20;2.83;;;15.50;93.30;;;;;;5075088;28;20040;-76
2021/09/24 01:22:22;;;;;;;3.78;2.58;;;15.50;93.30;;;;;;5076286;28;20128;-76
2021/09/24 01:24:48;;;;;;;4.25;2.75;;;15.50;93.20;;;;;;5074280;28;20028;-76
2021/09/24 01:27:13;;;;;;;3.33;2.70;;;15.50;93.30;;;;;;5074875;28;20024;-77
2021/09/24 01:29:39;;;;;;;4.22;2.60;;;15.60;93.30;;;;;;5074118;28;20411;-76
2021/09/24 01:32:05;;;;;;;4.65;3.00;;;15.60;93.20;;;;;;5075804;28;20024;-76
2021/09/24 01:34:31;;;;;;;6.95;3.05;;;15.60;93.20;;;;;;5074794;28;20115;-76
2021/09/24 01:36:56;;;;;;;8.00;2.90;;;15.60;93.10;;;;;;5075009;28;20492;-76
2021/09/24 01:39:22;;;;;;;3.70;2.58;;;15.60;93.20;;;;;;5074334;28;20058;-77
2021/09/24 01:41:49;;;;;;;3.92;2.80;;;15.60;93.10;;;;;;5074058;28;20081;-76
2021/09/24 01:44:15;;;;;;;5.85;2.80;;;15.60;93.20;;;;;;5074327;28;20024;-76
2021/09/24 01:46:44;;;;;;;4.32;2.95;;;15.60;93.20;;;;;;5073986;28;20146;-77
2021/09/24 01:49:10;;;;;;;5.72;2.78;;;15.60;93.20;;;;;;5075863;28;20029;-76
2021/09/24 01:51:42;;;;;;;4.20;2.78;;;15.70;93.20;;;;;;5073974;28;20085;-77
2021/09/24 01:54:08;;;;;;;4.40;2.75;;;15.70;93.20;;;;;;5074492;28;20032;-76
2021/09/24 01:56:34;;;;;;;4.43;2.85;;;15.70;93.20;;;;;;5073526;28;20048;-78
2021/09/24 01:59:00;;;;;;;4.40;2.97;;;15.70;93.10;;;;;;5075321;28;20055;-76
2021/09/24 02:01:25;;;;;;;5.03;3.20;;;15.70;93.10;;;;;;5074076;28;20029;-76
2021/09/24 02:03:51;;;;;;;3.55;2.90;;;15.70;93.10;;;;;;5073863;28;20492;-76
2021/09/24 02:06:17;;;;;;;6.15;3.17;;;15.70;93.10;;;;;;5074201;28;20119;-77
2021/09/24 02:08:43;;;;;;;3.85;2.60;;;15.60;93.10;;;;;;5073693;28;20028;-77
2021/09/24 02:11:11;;;;;;;4.22;2.83;;;15.60;93.20;;;;;;5075442;28;20060;-76
2021/09/24 02:13:38;;;;;;;4.85;2.90;;;15.60;93.20;;;;;;5073509;28;20388;-77
2021/09/24 02:16:04;;;;;;;5.78;3.22;;;15.60;93.30;;;;;;5074012;28;20028;-76
2021/09/24 02:18:29;;;;;;;4.20;2.75;;;15.60;93.30;;;;;;5075219;28;20029;-76
2021/09/24 02:20:55;;;;;;;9.25;3.15;;;15.60;93.30;;;;;;5074147;28;20036;-77
2021/09/24 02:23:21;;;;;;;5.88;2.78;;;15.60;93.30;;;;;;5073991;28;20044;-76
2021/09/24 02:25:47;;;;;;;5.05;3.28;;;15.60;93.20;;;;;;5073290;28;20050;-77
2021/09/24 02:28:13;;;;;;;5.45;2.92;;;15.60;93.30;;;;;;5074067;28;20056;-76
2021/09/24 02:30:39;;;;;;;3.83;3.00;;;15.60;93.30;;;;;;5073254;28;20109;-77
2021/09/24 02:33:05;;;;;;;5.32;3.10;;;15.60;93.30;;;;;;5074625;28;20024;-76
2021/09/24 02:35:30;;;;;;;4.47;3.30;;;15.60;93.30;;;;;;5074693;28;20492;-76
2021/09/24 02:37:56;;;;;;;5.22;3.60;;;15.60;93.30;;;;;;5073068;28;20535;-76
2021/09/24 02:40:22;;;;;;;4.53;3.15;;;15.60;93.40;;;;;;5073525;28;20215;-76
2021/09/24 02:42:48;;;;;;;4.43;3.08;;;15.60;93.40;;;;;;5073011;28;20484;-76
2021/09/24 02:45:13;;;;;;;6.93;3.08;;;15.60;93.40;;;;;;5073332;28;20545;-76
2021/09/24 02:47:39;;;;;;;5.82;3.42;;;15.50;93.40;;;;;;5072568;28;20035;-77
2021/09/24 02:50:07;;;;;;;4.70;3.20;;;15.60;93.60;;;;;;5073207;28;20055;-76
2021/09/24 02:52:33;;;;;;;4.20;3.03;;;15.50;93.70;;;;;;5074444;28;20021;-76
2021/09/24 02:54:59;;;;;;;5.20;3.03;;;15.50;93.80;;;;;;5073361;28;20040;-76
2021/09/24 02:57:25;;;;;;;4.80;3.58;;;15.50;93.90;;;;;;5073410;28;20028;-76
2021/09/24 02:59:51;;;;;;;5.20;3.17;;;15.50;94.10;;;;;;5072447;28;20025;-76
2021/09/24 03:02:17;;;;;;;5.13;3.10;;;15.50;94.20;;;;;;5073965;28;20032;-76
2021/09/24 03:04:43;;;;;;;5.20;3.40;;;15.50;94.30;;;;;;5073603;28;20466;-77
2021/09/24 03:07:08;;;;;;;4.93;3.28;;;15.50;94.30;;;;;;5074071;28;20025;-76
2021/09/24 03:09:34;;;;;;;5.55;3.70;;;15.50;94.30;;;;;;5073847;28;20467;-76
2021/09/24 03:12:00;;;;;;;6.20;3.47;;;15.40;94.30;;;;;;5071827;28;20525;-77
2021/09/24 03:14:25;;;;;;;5.57;3.70;;;15.40;94.40;;;;;;5072445;28;20032;-76
2021/09/24 03:16:51;;;;;;;6.25;3.85;;;15.30;94.30;;;;;;5089494;28;20033;-76
2021/09/24 03:19:20;;;;;;;5.15;3.88;;;15.30;94.30;;;;;;5072704;28;20029;-76
2021/09/24 03:21:48;;;;;;;7.32;4.20;;;15.20;94.40;;;;;;5071980;28;20033;-77
2021/09/24 03:24:14;;;;;;;7.45;4.05;;;15.10;94.70;;;;;;5072814;28;20037;-76
2021/09/24 03:26:39;;;;;;;8.65;4.15;;;15.10;94.80;;;;;;5072287;28;20385;-78
2021/09/24 03:29:07;;;;;;;5.50;3.67;;;15.00;94.90;;;;;;5073769;28;20024;-76
2021/09/24 03:31:32;;;;;;;5.32;3.72;;;14.90;95.00;;;;;;5072325;28;20032;-76
2021/09/24 03:33:58;;;;;;;6.95;3.90;;;14.90;95.10;;;;;;5071966;28;20579;-76
2021/09/24 03:36:24;;;;;;;5.18;3.55;;;14.90;95.10;;;;;;5072552;28;20075;-76
2021/09/24 03:38:49;;;;;;;7.25;4.05;;;14.90;95.20;;;;;;5073080;28;20024;-77
2021/09/24 03:41:15;;;;;;;6.53;4.10;;;14.80;95.30;;;;;;5072397;28;20036;-77
2021/09/24 03:43:41;;;;;;;9.77;4.10;;;14.70;95.40;;;;;;5071573;28;20081;-77
2021/09/24 03:46:07;;;;;;;8.73;4.07;;;14.70;95.50;;;;;;5072276;28;20094;-76
2021/09/24 03:48:32;;;;;;;8.82;4.20;;;14.70;95.60;;;;;;5072252;28;20051;-76
2021/09/24 03:50:58;;;;;;;7.13;4.20;;;14.60;95.70;;;;;;5071858;28;20029;-76
2021/09/24 03:53:24;;;;;;;9.68;4.07;;;14.60;95.70;;;;;;5073672;28;20031;-77
2021/09/24 03:55:52;;;;;;;7.20;4.30;;;14.60;95.80;;;;;;5071628;28;20447;-76
2021/09/24 03:58:19;;;;;;;9.35;4.60;;;14.50;95.90;;;;;;5073409;28;20075;-76
2021/09/24 04:00:45;;;;;;;6.50;4.00;;;14.50;96.20;;;;;;5071683;28;20052;-76
2021/09/24 04:03:10;;;;;;;12.32;4.97;;;14.50;96.00;;;;;;5072339;28;20471;-76
2021/09/24 04:05:36;;;;;;;6.70;4.03;;;14.50;96.10;;;;;;5072111;28;20028;-77
2021/09/24 04:08:02;;;;;;;7.07;4.65;;;14.40;96.10;;;;;;5072820;28;20020;-77
2021/09/24 04:10:27;;;;;;;8.98;4.57;;;14.30;96.20;;;;;;5073455;28;20032;-76
2021/09/24 04:12:53;;;;;;;6.85;4.40;;;14.40;96.30;;;;;;5071128;28;20067;-77
2021/09/24 04:15:21;;;;;;;10.10;4.40;;;14.40;96.30;;;;;;5071793;28;20132;-76
2021/09/24 04:17:46;;;;;;;7.38;4.75;;;14.30;96.30;;;;;;5070844;28;20033;-77
2021/09/24 04:20:12;;;;;;;6.47;4.32;;;14.30;96.40;;;;;;5071678;28;20037;-76
2021/09/24 04:22:38;;;;;;;8.05;4.40;;;14.30;96.40;;;;;;5073224;28;20469;-76
2021/09/24 04:25:05;;;;;;;9.30;4.85;;;14.30;96.50;;;;;;5075474;28;20119;-77
2021/09/24 04:27:31;;;;;;;7.50;4.68;;;14.30;96.50;;;;;;5076070;28;20024;-76
2021/09/24 04:29:56;;;;;;;7.18;4.70;;;14.30;96.50;;;;;;5075419;28;20366;-76
2021/09/24 04:32:22;;;;;;;7.28;4.65;;;14.30;96.60;;;;;;5077012;28;20036;-76
2021/09/24 04:34:48;;;;;;;8.20;4.82;;;14.20;96.60;;;;;;5076505;28;20029;-77
2021/09/24 04:37:14;;;;;;;7.22;4.90;;;14.20;96.80;;;;;;5076489;28;20540;-76
2021/09/24 04:39:40;;;;;;;9.80;5.50;;;14.20;96.90;;;;;;5077082;28;20016;-76
2021/09/24 04:42:05;;;;;;;8.27;4.63;;;14.20;96.90;;;;;;5075144;28;20358;-76
2021/09/24 04:44:32;;;;;;;7.55;4.80;;;14.20;96.80;;;;;;5075665;28;20028;-76
2021/09/24 04:46:57;;;;;;;8.77;4.88;;;14.20;96.90;;;;;;5075002;28;20041;-77
2021/09/24 04:49:23;;;;;;;8.07;4.65;;;14.20;96.90;;;;;;5075416;28;20025;-77
2021/09/24 04:51:49;;;;;;;10.02;5.18;;;14.20;96.80;;;;;;5075961;28;20039;-76
2021/09/24 04:54:15;;;;;;;9.27;5.25;;;14.10;96.90;;;;;;5075461;28;20051;-76
2021/09/24 04:56:41;;;;;;;10.32;5.20;;;14.10;97.00;;;;;;5074831;28;20072;-77
2021/09/24 04:59:06;;;;;;;9.77;5.05;;;14.20;97.00;;;;;;5074623;28;20038;-77
2021/09/24 05:01:33;;;;;;;10.32;5.50;;;14.10;97.00;;;;;;5074756;28;20029;-76
2021/09/24 05:03:58;;;;;;;10.73;5.63;;;14.20;96.90;;;;;;5074194;28;20021;-76
2021/09/24 05:06:24;;;;;;;11.48;5.82;;;14.20;97.00;;;;;;5076298;28;20027;-76
2021/09/24 05:08:49;;;;;;;8.38;5.55;;;14.10;97.00;;;;;;5074699;28;20119;-76
2021/09/24 05:11:15;;;;;;;9.95;5.30;;;14.10;97.10;;;;;;5076217;28;20033;-76
2021/09/24 05:13:42;;;;;;;9.07;5.20;;;14.10;97.10;;;;;;5075796;28;20020;-76
2021/09/24 05:16:07;;;;;;;12.63;5.85;;;14.00;97.10;;;;;;5074432;28;20025;-77
2021/09/24 05:18:33;;;;;;;11.32;5.32;;;14.10;97.30;;;;;;5076011;28;20031;-77
2021/09/24 05:20:59;;;;;;;11.52;5.97;;;14.00;97.30;;;;;;5075603;28;20427;-77
2021/09/24 05:23:24;;;;;;;11.25;5.47;;;14.00;97.30;;;;;;5074732;28;20024;-76
2021/09/24 05:25:50;;;;;;;9.20;5.63;;;14.00;97.30;;;;;;5075366;28;20053;-76
2021/09/24 05:28:16;;;;;;;9.70;5.45;;;14.00;97.40;;;;;;5075125;28;20109;-76
2021/09/24 05:30:41;;;;;;;11.07;5.90;;;14.00;97.50;;;;;;5074878;28;20381;-76
2021/09/24 05:33:07;;;;;;;12.00;5.85;;;14.00;97.50;;;;;;5074272;28;20028;-76
2021/09/24 05:35:33;;;;;;;11.40;6.55;;;14.00;97.50;;;;;;5073989;28;20454;-76
2021/09/24 05:37:59;;;;;;;11.13;6.78;;;14.00;97.50;;;;;;5075217;28;20024;-76
2021/09/24 05:40:25;;;;;;;11.30;6.57;;;14.00;97.60;;;;;;5074421;28;20592;-76
2021/09/24 05:42:51;;;;;;;10.95;6.10;;;14.00;97.70;;;;;;5074074;28;20481;-77
2021/09/24 05:45:17;;;;;;;16.60;6.07;;;14.00;97.70;;;;;;5074563;28;20393;-76
2021/09/24 05:47:44;;;;;;;12.73;6.65;;;14.00;97.80;;;;;;5074405;28;20029;-76
2021/09/24 05:50:12;;;;;;;12.20;6.95;;;14.00;97.70;;;;;;5073692;28;20037;-77
2021/09/24 05:52:43;;;;;;;14.70;6.32;;;14.00;97.80;;;;;;5074221;28;20035;-76
2021/09/24 05:55:10;;;;;;;11.15;5.82;;;14.00;97.70;;;;;;5073643;28;20059;-77
2021/09/24 05:57:36;;;;;;;13.25;6.55;;;14.00;97.80;;;;;;5074498;28;20020;-76
2021/09/24 06:00:04;;;;;;;15.10;6.40;;;14.10;97.90;;;;;;5073689;28;20043;-76
2021/09/24 06:02:30;;;;;;;13.25;6.22;;;14.10;97.90;;;;;;5074274;28;20051;-76
2021/09/24 06:04:56;;;;;;;16.65;6.90;;;14.10;97.80;;;;;;5073464;28;20450;-77
2021/09/24 06:07:22;;;;;;;13.25;7.13;;;14.10;97.80;;;;;;5075213;28;20024;-76
2021/09/24 06:09:48;;;;;;;14.07;6.72;;;14.20;97.80;;;;;;5075323;28;20027;-76
2021/09/24 06:12:13;;;;;;;12.75;6.60;;;14.20;97.90;;;;;;5074244;28;20025;-76
2021/09/24 06:14:39;;;;;;;12.18;6.65;;;14.20;97.80;;;;;;5074164;28;20043;-76
2021/09/24 06:17:04;;;;;;;13.23;6.53;;;14.20;97.90;;;;;;5074185;28;20024;-77
2021/09/24 06:19:30;;;;;;;12.90;6.43;;;14.30;97.90;;;;;;5075097;28;20032;-77
2021/09/24 06:21:56;;;;;;;11.45;6.22;;;14.30;97.80;;;;;;5073470;28;20389;-77
2021/09/24 06:24:21;;;;;;;12.75;7.00;;;14.30;97.80;;;;;;5073930;28;20530;-76
2021/09/24 06:26:47;;;;;;;11.55;6.22;;;14.30;97.80;;;;;;5073471;28;20477;-76
2021/09/24 06:29:12;;;;;;;10.15;6.20;;;14.30;97.80;;;;;;5073262;28;20025;-76
2021/09/24 06:31:38;;;;;;;10.18;5.53;;;14.30;97.70;;;;;;5074730;28;20075;-77
2021/09/24 06:34:04;;;;;;;11.15;6.38;;;14.30;97.70;;;;;;5074115;28;20048;-76
2021/09/24 06:36:29;;;;;;;9.30;6.15;;;14.40;97.70;;;;;;5073554;28;20035;-76
2021/09/24 06:38:55;;;;;;;10.45;6.15;;;14.40;97.70;;;;;;5072897;28;20025;-77
2021/09/24 06:41:21;;;;;;;11.00;6.20;;;14.40;97.60;;;;;;5074557;28;20454;-76
2021/09/24 06:43:47;;;;;;;13.90;6.18;;;14.40;97.80;;;;;;5073261;28;20044;-76
2021/09/24 06:46:12;;;;;;;11.30;6.55;;;14.40;97.70;;;;;;5072250;28;20025;-76
2021/09/24 06:48:38;;;;;;;9.43;6.53;;;14.40;97.70;;;;;;5073056;28;20043;-76
2021/09/24 06:51:04;;;;;;;12.80;6.15;;;14.40;97.70;;;;;;5072185;28;20032;-76
2021/09/24 06:53:30;;;;;;;10.02;6.35;;;14.40;97.70;;;;;;5073083;28;20381;-76
2021/09/24 06:55:58;;;;;;;10.15;6.30;;;14.40;97.80;;;;;;5072417;28;20071;-76
2021/09/24 06:58:24;;;;;;;11.75;6.68;;;14.40;97.70;;;;;;5074130;28;20078;-76
2021/09/24 07:00:50;;;;;;;10.77;6.28;;;14.50;97.60;;;;;;5073138;28;20028;-76
2021/09/24 07:03:15;;;;;;;10.23;6.28;;;14.50;97.60;;;;;;5073821;28;20024;-76
2021/09/24 07:05:41;;;;;;;11.52;5.90;;;14.50;97.40;;;;;;5073348;28;20082;-76
2021/09/24 07:08:07;;;;;;;9.05;5.80;;;14.50;97.40;;;;;;5072249;28;20059;-76
2021/09/24 07:10:32;;;;;;;10.25;6.50;;;14.50;97.30;;;;;;5072926;28;20025;-76
2021/09/24 07:12:58;;;;;;;9.75;6.18;;;14.60;97.40;;;;;;5073048;28;20028;-77
2021/09/24 07:15:23;;;;;;;10.77;6.15;;;14.60;97.40;;;;;;5074293;28;20389;-76
2021/09/24 07:17:49;;;;;;;9.93;6.22;;;14.60;97.40;;;;;;5072783;28;20029;-76
2021/09/24 07:20:15;;;;;;;10.32;6.05;;;14.60;97.40;;;;;;5072230;28;20059;-76
2021/09/24 07:22:41;;;;;;;12.38;5.93;;;14.70;97.40;;;;;;5072575;28;20466;-76
2021/09/24 07:25:07;;;;;;;10.35;5.97;;;14.70;97.20;;;;;;5072330;28;20029;-76
2021/09/24 07:27:33;;;;;;;9.45;5.72;;;14.80;97.10;;;;;;5072561;28;20393;-76
2021/09/24 07:29:59;;;;;;;8.10;5.50;;;14.80;97.00;;;;;;5072045;28;20028;-76
2021/09/24 07:32:25;;;;;;;11.00;5.65;;;14.80;96.90;;;;;;5073786;28;20025;-76
2021/09/24 07:34:51;;;;;;;8.23;5.07;;;14.80;97.00;;;;;;5072485;28;20024;-76
2021/09/24 07:37:16;;;;;;;11.20;5.40;;;14.80;96.60;;;;;;5072742;28;20055;-76
2021/09/24 07:39:42;;;;;;;10.27;5.28;;;14.90;96.60;;;;;;5072502;28;20032;-76
2021/09/24 07:42:08;;;;;;;9.93;4.80;;;14.90;96.60;;;;;;5071460;28;20139;-77
2021/09/24 07:44:34;;;;;;;7.53;5.25;;;15.00;96.50;;;;;;5073190;28;20474;-76
2021/09/24 07:47:00;;;;;;;8.27;5.07;;;15.10;96.50;;;;;;5071839;28;20024;-76
2021/09/24 07:49:26;;;;;;;8.45;5.30;;;15.10;96.40;;;;;;5072479;28;20389;-76
2021/09/24 07:51:53;;;;;;;8.65;4.82;;;15.10;96.40;;;;;;5073464;28;20035;-76
2021/09/24 07:54:21;;;;;;;6.85;4.95;;;15.20;96.30;;;;;;5071985;28;20028;-77
2021/09/24 07:56:48;;;;;;;10.07;5.38;;;15.20;96.40;;;;;;5073970;28;20075;-76
2021/09/24 07:59:14;;;;;;;8.27;4.57;;;15.30;96.40;;;;;;5071610;28;20154;-76
2021/09/24 08:01:40;;;;;;;8.85;5.45;;;15.30;96.40;;;;;;5072090;28;20119;-76
2021/09/24 08:04:05;;;;;;;10.48;5.35;;;15.30;96.30;;;;;;5071703;28;20539;-77
2021/09/24 08:06:31;;;;;;;9.13;5.18;;;15.40;96.20;;;;;;5072375;28;20025;-77
2021/09/24 08:08:56;;;;;;;8.82;5.20;;;15.40;96.10;;;;;;5071633;28;20485;-77
2021/09/24 08:11:22;;;;;;;6.63;4.70;;;15.50;96.10;;;;;;5072033;28;20029;-77
2021/09/24 08:13:48;;;;;;;9.82;5.20;;;15.50;96.30;;;;;;5071972;28;20032;-77
2021/09/24 08:16:13;;;;;;;7.90;4.78;;;15.60;96.00;;;;;;5071339;28;20043;-77
2021/09/24 08:18:39;;;;;;;9.18;5.35;;;15.70;95.70;;;;;;5071796;28;20025;-77
2021/09/24 08:21:05;;;;;;;9.80;5.20;;;15.70;95.70;;;;;;5071778;28;20032;-77
2021/09/24 08:23:31;;;;;;;10.23;5.00;;;15.80;95.80;;;;;;5072087;28;20461;-77
2021/09/24 08:25:56;;;;;;;8.65;5.03;;;15.80;95.70;;;;;;5072935;28;20453;-78
2021/09/24 08:28:22;;;;;;;9.98;5.03;;;15.90;95.50;;;;;;5073059;28;20021;-77
2021/09/24 08:30:48;;;;;;;8.43;5.03;;;15.90;95.50;;;;;;5071663;28;20024;-76
2021/09/24 08:33:17;;;;;;;8.43;4.93;;;16.00;95.60;;;;;;5071442;28;20119;-76
2021/09/24 08:35:44;;;;;;;7.95;4.50;;;16.10;95.50;;;;;;5072938;28;20028;-76
2021/09/24 08:38:09;;;;;;;7.22;4.55;;;16.10;95.30;;;;;;5071215;28;20031;-76
2021/09/24 08:40:36;;;;;;;7.68;4.47;;;16.20;95.30;;;;;;5071961;28;20032;-76
2021/09/24 08:43:03;;;;;;;8.35;4.55;;;16.20;95.20;;;;;;5072719;28;20029;-77
2021/09/24 08:45:31;;;;;;;10.98;4.40;;;16.30;95.20;;;;;;5071620;28;20528;-77
2021/09/24 08:47:59;;;;;;;8.80;4.22;;;16.30;95.00;;;;;;5071952;28;20120;-77
2021/09/24 08:50:27;;;;;;;8.10;4.20;;;16.40;94.70;;;;;;5072878;28;20025;-77
2021/09/24 08:52:53;;;;;;;8.05;4.07;;;16.50;94.60;;;;;;5071842;28;20111;-77
2021/09/24 08:55:19;;;;;;;8.10;4.63;;;16.50;94.40;;;;;;5070782;28;20135;-77
2021/09/24 08:57:45;;;;;;;5.63;3.72;;;16.50;94.30;;;;;;5072917;28;20032;-77
2021/09/24 09:00:12;;;;;;;5.57;3.63;;;16.60;94.50;;;;;;5071386;28;20032;-77
2021/09/24 09:03:15;;;;;;;6.63;4.00;;;16.70;94.00;;;;;;5072799;28;20036;-77
2021/09/24 09:05:44;;;;;;;7.38;3.92;;;16.70;93.80;;;;;;5040890;28;20051;-77
2021/09/24 09:08:14;;;;;;;6.70;3.70;;;16.80;93.90;;;;;;5070946;28;20031;-77
2021/09/24 09:11:00;;;;;;;8.43;4.40;;;16.90;93.60;;;;;;5073481;28;20039;-76
2021/09/24 09:13:30;;;;;;;5.90;3.63;;;17.00;93.20;;;;;;5076125;28;20024;-77
2021/09/24 09:16:09;;;;;;;6.93;4.00;;;17.00;92.80;;;;;;5076250;28;20029;-77
2021/09/24 09:18:37;;;;;;;7.70;4.45;;;17.00;93.00;;;;;;5091819;28;20036;-76
2021/09/24 09:21:06;;;;;;;7.35;3.80;;;17.10;92.90;;;;;;5075783;28;20036;-77
2021/09/24 09:23:33;;;;;;;5.75;4.40;;;17.10;92.60;;;;;;5074795;28;20028;-77
2021/09/24 09:26:02;;;;;;;5.55;3.97;;;17.20;92.70;;;;;;5075730;28;20082;-76
2021/09/24 09:28:35;;;;;;;6.88;3.67;;;17.20;92.50;;;;;;5074561;28;20046;-76
2021/09/24 09:31:15;;;;;;;7.75;4.13;;;17.30;92.60;;;;;;5074107;28;20025;-77
2021/09/24 09:33:40;;;;;;;5.97;3.95;;;17.40;92.70;;;;;;5075815;28;20021;-77
2021/09/24 09:36:06;;;;;;;8.27;4.35;;;17.50;92.20;;;;;;5073943;28;20169;-77
2021/09/24 09:38:36;;;;;;;9.98;4.13;;;17.50;92.00;;;;;;5074594;28;20052;-77
2021/09/24 09:41:06;;;;;;;7.68;3.85;;;17.60;91.80;;;;;;5074045;28;20105;-77
2021/09/24 09:43:34;;;;;;;4.82;3.78;;;17.70;92.00;;;;;;5075755;28;20466;-77
2021/09/24 09:46:04;;;;;;;6.10;4.30;;;17.70;91.70;;;;;;5074601;28;20028;-76
2021/09/24 09:48:30;;;;;;;8.05;4.05;;;17.70;91.70;;;;;;5074363;28;20075;-76
2021/09/24 09:50:56;;;;;;;5.38;3.53;;;17.80;92.00;;;;;;5075691;28;20029;-76
2021/09/24 09:53:22;;;;;;;6.32;3.90;;;17.90;91.90;;;;;;5075150;28;20050;-76
2021/09/24 09:55:58;;;;;;;7.63;4.63;;;18.00;91.50;;;;;;5073773;28;20490;-76
2021/09/24 09:58:31;;;;;;;6.05;4.07;;;18.00;91.10;;;;;;5073578;28;20028;-76
2021/09/24 10:01:06;;;;;;;5.70;3.88;;;18.00;91.00;;;;;;5075475;28;20432;-76
2021/09/24 10:03:47;;;;;;;6.20;3.63;;;18.10;90.90;;;;;;5074095;28;20028;-76
2021/09/24 10:06:32;;;;;;;7.07;3.95;;;18.10;90.80;;;;;;5073651;28;20020;-76
2021/09/24 10:09:00;;;;;;;8.18;3.97;;;18.20;90.60;;;;;;5074075;28;20385;-76
2021/09/24 10:11:39;;;;;;;7.13;4.00;;;18.20;90.80;;;;;;5074484;28;20025;-76
2021/09/24 10:14:09;;;;;;;9.55;3.88;;;18.30;90.70;;;;;;5073543;28;20060;-77
2021/09/24 10:16:48;;;;;;;4.90;3.80;;;18.30;90.40;;;;;;5074920;28;20477;-76
2021/09/24 10:19:15;;;;;;;6.72;3.70;;;18.40;90.50;;;;;;5074313;28;20258;-76
2021/09/24 10:21:42;;;;;;;6.78;3.42;;;18.40;89.80;;;;;;5074534;28;20048;-77
2021/09/24 10:24:07;;;;;;;6.10;3.50;;;18.40;89.80;;;;;;5073180;28;20071;-77
2021/09/24 10:26:47;;;;;;;8.95;3.80;;;18.40;90.10;;;;;;5073749;28;20446;-76
2021/09/24 10:29:16;;;;;;;5.47;3.60;;;18.50;90.30;;;;;;5073127;28;20024;-77
2021/09/24 10:31:50;;;;;;;5.35;3.63;;;18.60;90.50;;;;;;5074591;28;20115;-77
2021/09/24 10:34:17;;;;;;;5.07;3.53;;;18.60;90.30;;;;;;5073039;28;20439;-77
2021/09/24 10:36:54;;;;;;;4.65;3.20;;;18.60;90.20;;;;;;5073183;28;20025;-77
2021/09/24 10:39:31;;;;;;;5.10;3.40;;;18.70;90.20;;;;;;5074141;28;20021;-76
2021/09/24 10:42:19;;;;;;;4.85;2.83;;;18.70;88.50;;;;;;5090115;28;20028;-76
2021/09/24 10:45:03;;;;;;;8.98;3.33;;;18.80;86.80;;;;;;5090438;28;20064;-76
2021/09/24 10:47:45;;;;;;;4.93;2.70;;;18.90;85.20;;;;;;5089516;28;20025;-77
2021/09/24 10:50:29;;;;;;;3.90;2.50;;;18.90;85.50;;;;;;5072712;28;20177;-77
2021/09/24 10:55:38;;;;;;;5.18;2.80;;;19.10;83.60;;;;;;5073874;28;20037;-77
2021/09/24 10:58:03;;;;;;;3.65;2.60;;;19.10;83.60;;;;;;5072916;28;20123;-76
2021/09/24 11:00:31;;;;;;;4.70;2.70;;;19.10;84.00;;;;;;5072386;28;20171;-77
2021/09/24 11:03:08;;;;;;;4.63;2.65;;;19.20;82.60;;;;;;5073033;28;20036;-77
2021/09/24 11:06:01;;;;;;;4.45;3.00;;;19.20;82.30;;;;;;5072732;28;20503;-76
2021/09/24 11:08:32;;;;;;;3.65;2.70;;;19.20;81.80;;;;;;5089025;28;20040;-77
2021/09/24 11:11:05;;;;;;;5.10;2.30;;;19.30;82.50;;;;;;5089721;28;20035;-76
2021/09/24 11:13:33;;;;;;;5.45;2.70;;;19.30;82.70;;;;;;5073800;28;20025;-77
2021/09/24 11:16:12;;;;;;;4.53;2.72;;;19.40;81.80;;;;;;5073329;28;20052;-77
2021/09/24 11:19:01;;;;;;;5.40;2.40;;;19.40;81.60;;;;;;5072693;28;20071;-76
2021/09/24 11:21:32;;;;;;;4.55;2.40;;;19.50;81.50;;;;;;5073427;28;20304;-76
2021/09/24 11:24:00;;;;;;;3.45;2.58;;;19.50;80.50;;;;;;5089396;28;20040;-77
2021/09/24 11:26:32;;;;;;;3.53;2.60;;;19.60;79.80;;;;;;5071702;28;20071;-76
2021/09/24 11:29:09;;;;;;;4.15;2.90;;;19.60;79.90;;;;;;5072626;28;20060;-77
2021/09/24 11:31:53;;;;;;;4.38;2.78;;;19.70;79.40;;;;;;5071820;28;20064;-77
2021/09/24 11:34:51;;;;;;;4.65;2.78;;;19.60;79.90;;;;;;5072279;28;20032;-77
2021/09/24 11:37:18;;;;;;;5.38;2.85;;;19.70;80.10;;;;;;5038968;28;20052;-77
2021/09/24 11:39:45;;;;;;;4.65;2.67;;;19.80;81.10;;;;;;5073491;28;20053;-77
2021/09/24 11:42:13;;;;;;;8.90;3.00;;;19.80;80.80;;;;;;5071946;28;20064;-77
2021/09/24 11:44:44;;;;;;;6.75;2.92;;;19.90;81.50;;;;;;5072232;28;20028;-76
2021/09/24 11:47:21;;;;;;;4.50;3.17;;;19.90;81.30;;;;;;5073298;28;20461;-78
2021/09/24 11:50:25;;;;;;;5.60;3.35;;;19.90;80.60;;;;;;5072656;28;20072;-77
2021/09/24 11:52:55;;;;;;;4.50;2.95;;;19.90;81.00;;;;;;5089229;28;20036;-77
2021/09/24 11:55:31;;;;;;;6.05;3.13;;;20.10;81.80;;;;;;5072562;28;20049;-77
2021/09/24 11:58:12;;;;;;;3.72;2.85;;;20.20;81.90;;;;;;5072298;28;20025;-77
2021/09/24 12:00:48;;;;;;;5.03;3.40;;;20.40;80.90;;;;;;5071826;28;20043;-77
2021/09/24 12:03:28;;;;;;;4.10;2.78;;;20.50;80.00;;;;;;5071594;28;20036;-77
2021/09/24 12:06:02;;;;;;;4.65;3.22;;;20.70;79.40;;;;;;5072053;28;20029;-77
2021/09/24 12:08:48;;;;;;;6.25;2.63;;;20.90;78.50;;;;;;5071532;28;20085;-77
2021/09/24 12:11:25;;;;;;;6.38;3.38;;;21.00;78.10;;;;;;5072681;28;20066;-77
2021/09/24 12:14:02;;;;;;;6.10;3.10;;;21.10;76.50;;;;;;5071924;28;20544;-77
2021/09/24 12:16:33;;;;;;;4.32;3.00;;;21.20;76.40;;;;;;5072282;28;20080;-77
2021/09/24 12:19:09;;;;;;;5.53;2.95;;;21.30;76.00;;;;;;5071751;28;20436;-76
2021/09/24 12:21:38;;;;;;;7.85;2.88;;;21.50;75.20;;;;;;5071158;28;20036;-77
2021/09/24 12:24:07;;;;;;;3.83;2.80;;;21.60;74.50;;;;;;5072688;28;20028;-77
2021/09/24 12:26:36;;;;;;;4.90;3.15;;;21.80;74.50;;;;;;5070927;28;20021;-77
2021/09/24 12:29:08;;;;;;;5.70;3.25;;;22.00;73.50;;;;;;5071543;28;20024;-77
2021/09/24 12:31:40;;;;;;;7.63;3.10;;;22.10;73.00;;;;;;5072176;28;20024;-77
2021/09/24 12:34:11;;;;;;;6.90;3.08;;;22.30;72.40;;;;;;5071579;28;20457;-77
2021/09/24 12:36:58;;;;;;;3.80;2.78;;;22.40;71.90;;;;;;5071503;28;20025;-77
2021/09/24 12:39:27;;;;;;;5.28;2.92;;;22.60;70.80;;;;;;5061889;28;20107;-77
2021/09/24 12:41:53;;;;;;;6.22;3.33;;;22.70;70.10;;;;;;5071237;28;20531;-77
2021/09/24 12:44:21;;;;;;;5.43;2.58;;;22.90;70.00;;;;;;5071076;28;20060;-77
2021/09/24 12:46:52;;;;;;;6.28;2.80;;;23.00;68.00;;;;;;5075283;28;20036;-77
2021/09/24 12:49:21;;;;;;;4.20;2.67;;;23.20;66.60;;;;;;5074646;28;20036;-77
2021/09/24 12:51:50;;;;;;;6.95;2.92;;;23.40;67.00;;;;;;5074988;28;20054;-77
2021/09/24 12:54:16;;;;;;;5.13;2.70;;;23.70;66.20;;;;;;5074458;28;20031;-76